createdAt,value
2024-04-05T00:03:00.473Z,98145.5
2024-04-05T00:08:35.748Z,98132
2024-04-05T00:14:10.751Z,98125.5
2024-04-05T00:19:45.744Z,98115.4
2024-04-05T00:25:20.848Z,98113.6
2024-04-05T00:30:55.944Z,98106.9
2024-04-05T00:36:31.186Z,98099.5
2024-04-05T00:42:06.310Z,98082.7
2024-04-05T00:47:41.635Z,98078
2024-04-05T00:53:16.933Z,98075.3
2024-04-05T00:58:51.868Z,98076.1
2024-04-05T01:04:27.305Z,98077.8
2024-04-05T01:10:02.455Z,98085.5
2024-04-05T01:15:37.545Z,98079.2
2024-04-05T01:21:12.704Z,98077.5
2024-04-05T01:26:47.769Z,98076.7
2024-04-05T01:32:22.986Z,98092.1
2024-04-05T01:37:58.470Z,98113.2
2024-04-05T01:43:33.738Z,98110.6
2024-04-05T01:49:09.496Z,98111.8
2024-04-05T01:54:44.553Z,98110.7
2024-04-05T02:00:19.878Z,98096.9
2024-04-05T02:05:54.718Z,98097.6
2024-04-05T02:11:30.128Z,98118.5
2024-04-05T02:17:05.228Z,98116.6
2024-04-05T02:22:40.484Z,98112.3
2024-04-05T02:28:16.686Z,98115.7
2024-04-05T02:33:51.655Z,98116.9
2024-04-05T02:39:26.925Z,98126.2
2024-04-05T02:45:02.147Z,98123.4
2024-04-05T02:50:37.456Z,98122.1
2024-04-05T02:56:12.610Z,98132
2024-04-05T03:01:48.047Z,98124.1
2024-04-05T03:07:23.391Z,98117.3
2024-04-05T03:12:58.611Z,98130.8
2024-04-05T03:18:33.381Z,98138.1
2024-04-05T03:24:08.924Z,98138.6
2024-04-05T03:29:43.769Z,98153.5
2024-04-05T03:35:19.132Z,98160.6
2024-04-05T03:40:54.271Z,98168.8
2024-04-05T03:46:29.588Z,98171.3
2024-04-05T03:52:04.507Z,98174.8
2024-04-05T03:57:39.347Z,98175.1
2024-04-05T04:03:14.332Z,98169.7
2024-04-05T04:08:49.472Z,98170.7
2024-04-05T04:14:24.580Z,98168.7
2024-04-05T04:19:59.774Z,98171.2
2024-04-05T04:25:35.069Z,98168.3
2024-04-05T04:31:10.395Z,98171.9
2024-04-05T04:36:45.581Z,98171.7
2024-04-05T04:42:21.038Z,98151.9
2024-04-05T04:47:56.406Z,98155.6
2024-04-05T04:53:31.498Z,98185.3
2024-04-05T04:59:06.586Z,98195.9
2024-04-05T05:04:42.186Z,98179.2
2024-04-05T05:10:17.604Z,98169.4
2024-04-05T05:15:52.890Z,98180.3
2024-04-05T05:21:28.488Z,98185.1
2024-04-05T05:27:03.857Z,98193.1
2024-04-05T05:32:38.882Z,98202.9
2024-04-05T05:38:15.106Z,98207.2
2024-04-05T05:43:50.503Z,98194.8
2024-04-05T05:49:26.766Z,98186
2024-04-05T05:55:01.960Z,98193.6
2024-04-05T06:00:37.384Z,98182.5
2024-04-05T06:06:12.663Z,98182.5
2024-04-05T06:11:47.633Z,98158.6
2024-04-05T06:17:22.858Z,98149.9
2024-04-05T06:22:58.215Z,98185.5
2024-04-05T06:28:41.593Z,98192.5
2024-04-05T06:34:16.858Z,98192
2024-04-05T06:39:51.959Z,98227.9
2024-04-05T06:45:27.585Z,98244.1
2024-04-05T06:51:03.264Z,98232.5
2024-04-05T06:56:39.133Z,98239.6
2024-04-05T07:02:14.426Z,98252.2
2024-04-05T07:07:49.661Z,98248
2024-04-05T07:13:24.937Z,98250.2
2024-04-05T07:19:01.416Z,98252.8
2024-04-05T07:24:38.872Z,98261.7
2024-04-05T07:30:14.772Z,98276
2024-04-05T07:35:49.790Z,98279.1
2024-04-05T07:41:26.302Z,98279.1
2024-04-05T07:47:01.160Z,98288
2024-04-05T07:52:36.386Z,98290.5
2024-04-05T07:58:11.479Z,98294.5
2024-04-05T08:03:46.715Z,98290.6
2024-04-05T08:09:22.379Z,98297.3
2024-04-05T08:14:57.274Z,98301.3
2024-04-05T08:20:32.911Z,98317.8
2024-04-05T08:26:07.989Z,98327.9
2024-04-05T08:31:43.017Z,98327.8
2024-04-05T08:37:18.310Z,98334.9
2024-04-05T08:42:53.975Z,98342.9
2024-04-05T08:48:29.526Z,98350.4
2024-04-05T08:54:04.926Z,98358.6
2024-04-05T08:59:40.291Z,98358.1
2024-04-05T09:05:15.280Z,98356.2
2024-04-05T09:10:50.556Z,98361.4
2024-04-05T09:16:25.994Z,98365.8
2024-04-05T09:22:01.388Z,98372.5
2024-04-05T09:27:36.807Z,98367.2
2024-04-05T09:33:12.003Z,98366.7
2024-04-05T09:38:46.999Z,98354.8
2024-04-05T09:44:27.538Z,98358.2
2024-04-05T09:50:03.126Z,98368.2
2024-04-05T09:55:38.142Z,98373.5
2024-04-05T10:01:13.403Z,98387.2
2024-04-05T10:06:48.769Z,98375.7
2024-04-05T10:12:24.991Z,98364.3
2024-04-05T10:18:01.948Z,98362.7
2024-04-05T10:23:37.698Z,98353.8
2024-04-05T10:29:12.876Z,98342.2
2024-04-05T10:34:48.346Z,98340.2
2024-04-05T10:40:24.481Z,98331.4
2024-04-05T10:45:59.843Z,98319.2
2024-04-05T10:51:35.078Z,98320.9
2024-04-05T10:57:10.974Z,98312.6
2024-04-05T11:02:47.109Z,98298.6
2024-04-05T11:08:22.156Z,98287.8
2024-04-05T11:13:57.705Z,98274.7
2024-04-05T11:19:33.083Z,98267.6
2024-04-05T11:25:08.079Z,98261.7
2024-04-05T11:30:43.835Z,98263.8
2024-04-05T11:36:18.944Z,98265.1
2024-04-05T11:41:54.520Z,98255
2024-04-05T11:47:30.320Z,98255.1
2024-04-05T11:53:06.452Z,98249.8
2024-04-05T11:58:41.566Z,98222.9
2024-04-05T12:04:17.019Z,98227.4
2024-04-05T12:09:52.445Z,98207.6
2024-04-05T12:15:27.943Z,98201.5
2024-04-05T12:21:03.663Z,98193.5
2024-04-05T12:26:39.361Z,98191.2
2024-04-05T12:32:15.248Z,98187
2024-04-05T12:37:50.669Z,98190.3
2024-04-05T12:43:25.912Z,98185.3
2024-04-05T12:49:01.173Z,98177.8
2024-04-05T12:54:36.510Z,98181.5
2024-04-05T13:00:11.767Z,98163.3
2024-04-05T13:05:47.443Z,98160.5
2024-04-05T13:11:22.696Z,98147
2024-04-05T13:16:58.084Z,98142
2024-04-05T13:22:33.873Z,98144
2024-04-05T13:28:09.171Z,98125.4
2024-04-05T13:33:44.341Z,98118.2
2024-04-05T13:39:19.520Z,98119.1
2024-04-05T13:44:54.969Z,98106.9
2024-04-05T13:50:30.278Z,98101.7
2024-04-05T13:56:05.752Z,98101.4
2024-04-05T14:01:41.328Z,98088.9
2024-04-05T14:07:16.417Z,98082.8
2024-04-05T14:12:52.172Z,98081.9
2024-04-05T14:18:27.885Z,98079.7
2024-04-05T14:24:02.813Z,98076.5
2024-04-05T14:29:37.729Z,98072
2024-04-05T14:35:13.320Z,98067.3
2024-04-05T14:40:48.532Z,98069.1
2024-04-05T14:46:24.324Z,98071.1
2024-04-05T14:51:59.575Z,98067.1
2024-04-05T14:57:34.331Z,98065.4
2024-04-05T15:03:09.343Z,98050.6
2024-04-05T15:08:48.386Z,98052.3
2024-04-05T15:14:23.605Z,98055.7
2024-04-05T15:19:58.578Z,98047.5
2024-04-05T15:25:33.598Z,98047.7
2024-04-05T15:31:08.784Z,98046.9
2024-04-05T15:36:43.824Z,98031.4
2024-04-05T15:42:19.450Z,98032.5
2024-04-05T15:47:54.446Z,98033
2024-04-05T15:53:29.545Z,98028.4
2024-04-05T15:59:05.427Z,98029.2
2024-04-05T16:04:40.919Z,98027.2
2024-04-05T16:10:16.380Z,98030.3
2024-04-05T16:15:51.707Z,98022
2024-04-05T16:21:26.889Z,98029.5
2024-04-05T16:27:02.173Z,98019.1
2024-04-05T16:32:37.161Z,98029.7
2024-04-05T16:38:15.371Z,98028.1
2024-04-05T16:43:51.585Z,98028.4
2024-04-05T16:49:26.963Z,98029
2024-04-05T16:55:02.995Z,98033.6
2024-04-05T17:00:38.343Z,98033.1
2024-04-05T17:06:15.283Z,98025.5
2024-04-05T17:11:50.477Z,98026.2
2024-04-05T17:17:25.741Z,98023.3
2024-04-05T17:23:01.277Z,98029.8
2024-04-05T17:28:36.705Z,98027.8
2024-04-05T17:34:11.644Z,98013.3
2024-04-05T17:39:46.808Z,98016.6
2024-04-05T17:45:21.892Z,98013.3
2024-04-05T17:50:56.888Z,98016
2024-04-05T17:56:31.934Z,98012.6
2024-04-05T18:02:07.565Z,97998.7
2024-04-05T18:07:42.763Z,98005.9
2024-04-05T18:13:18.038Z,98010.1
2024-04-05T18:18:52.842Z,98016.8
2024-04-05T18:24:28.229Z,98024.6
2024-04-05T18:30:04.077Z,98032
2024-04-05T18:35:39.746Z,98040.6
2024-04-05T18:41:15.946Z,98044
2024-04-05T18:46:52.070Z,98053.7
2024-04-05T18:52:27.372Z,98058.9
2024-04-05T18:58:02.554Z,98065.1
2024-04-05T19:03:37.467Z,98076.3
2024-04-05T19:09:12.519Z,98078.9
2024-04-05T19:14:47.484Z,98090.8
2024-04-05T19:20:22.674Z,98095.4
2024-04-05T19:25:57.624Z,98113.3
2024-04-05T19:31:32.770Z,98121
2024-04-05T19:37:09.531Z,98127.3
2024-04-05T19:42:44.459Z,98131.7
2024-04-05T19:48:19.172Z,98131.5
2024-04-05T19:53:54.453Z,98137.2
2024-04-05T19:59:29.206Z,98142.3
2024-04-05T20:05:04.406Z,98145.8
2024-04-05T20:10:39.702Z,98155.5
2024-04-05T20:16:14.964Z,98162.1
2024-04-05T20:21:50.469Z,98168.8
2024-04-05T20:27:26.513Z,98184
2024-04-05T20:33:01.181Z,98188.9
2024-04-05T20:38:36.479Z,98183.8
2024-04-05T20:44:11.435Z,98183.3
2024-04-05T20:49:47.764Z,98190.4
2024-04-05T20:55:23.211Z,98185.9
2024-04-05T21:00:58.294Z,98194.7
2024-04-05T21:06:33.412Z,98205.4
2024-04-05T21:12:08.477Z,98204.5
2024-04-05T21:17:43.418Z,98207.8
2024-04-05T21:23:18.727Z,98209.8
2024-04-05T21:28:54.689Z,98212.2
2024-04-05T21:34:29.926Z,98217.6
2024-04-05T21:40:05.161Z,98213.1
2024-04-05T21:45:40.786Z,98206.9
2024-04-05T21:51:19.647Z,98209.1
2024-04-05T21:56:54.957Z,98204.8
2024-04-05T22:02:30.445Z,98203.9
2024-04-05T22:08:05.807Z,98204.9
2024-04-05T22:13:41.061Z,98193.1
2024-04-05T22:19:16.143Z,98192.6
2024-04-05T22:24:51.746Z,98183.6
2024-04-05T22:30:26.767Z,98180.4
2024-04-05T22:36:02.131Z,98173.9
2024-04-05T22:41:37.388Z,98171.5
2024-04-05T22:47:12.555Z,98183.2
2024-04-05T22:52:48.096Z,98169.6
2024-04-05T22:58:23.142Z,98163
2024-04-05T23:03:58.062Z,98158
2024-04-05T23:09:33.376Z,98156.5
2024-04-05T23:15:08.648Z,98155.3
2024-04-05T23:20:43.910Z,98152.6
2024-04-05T23:26:19.204Z,98153.9
2024-04-05T23:31:54.771Z,98140.6
2024-04-05T23:37:30.049Z,98134.6
2024-04-05T23:43:04.959Z,98124.8
2024-04-05T23:48:40.050Z,98121.6
2024-04-05T23:54:14.943Z,98123.2
2024-04-05T23:59:50.375Z,98118.4
